Barcelona Knutsen — EACW — position and weather

sailwx.info

Track history (hours):
 
Tides and Currents Weather Stations Pressure Air Temp Water Temp Dewpoint Dewpoint Depression Visibility Wind Speed Wind Dir Waves Ship Positions

Barcelona Knutsen

Last reported at 2016-May-23 12:33 UTC. Time now 2016-May-26 02:49 UTC.
Position N 32°27' E 134°21'.

Length 290 m; draft 10.2 m.

Type: Tanker. MMSI: 224436000.

Date/timePositionNaut miles runAvg speedWind from/ knotsBaromVisibWave heightAir tempDewpointWater temp
2016-May-23 12:33N 32°27' E 134°21'7216.6
2016-May-23 08:11N 33°34' E 134°54'1118.0
2016-May-23 07:34N 33°45' E 134°54'2020.2
2016-May-23 06:34N 34°05' E 134°56'1514.6
2016-May-23 05:33N 34°19' E 134°59'1514.9
2016-May-23 04:34N 34°29' E 135°13'1010.1
2016-May-23 03:33N 34°33' E 135°24'1 0.6
2016-May-23 02:31N 34°34' E 135°24'0 0.0
2016-May-22 11:31N 34°34' E 135°24'0 0.0
2016-May-22 10:07N 34°34' E 135°24'0 0.0
2016-May-22 09:31N 34°34' E 135°24'0 0.0
2016-May-22 07:31N 34°34' E 135°24'0 0.0
2016-May-22 06:25N 34°34' E 135°24'0 0.0
2016-May-22 05:31N 34°34' E 135°24'0 0.0
2016-May-22 04:31N 34°34' E 135°24'0 0.0
2016-May-22 03:25N 34°34' E 135°24'0 0.3
2016-May-22 02:33N 34°34' E 135°24'7 7.0
2016-May-22 01:34N 34°32' E 135°16'1312.5
2016-May-22 00:34N 34°23' E 135°05'1212.2
2016-May-21 23:33N 34°12' E 134°60'1010.1
2016-May-21 22:33N 34°02' E 134°58'  
Track history (hours):
 
Tides and Currents Weather Stations Pressure Air Temp Water Temp Dewpoint Dewpoint Depression Visibility Wind Speed Wind Dir Waves Ship Positions

Barcelona Knutsen

Last reported at 2016-May-23 12:33 UTC. Time now 2016-May-26 02:49 UTC.
Position N 32°27' E 134°21'.

Length 290 m; draft 10.2 m.

Type: Tanker. MMSI: 224436000.

Date/timePositionNaut miles runAvg speedWind from/ knotsBaromVisibWave heightAir tempDewpointWater temp
2016-May-23 12:33N 32°27' E 134°21'7216.6
2016-May-23 08:11N 33°34' E 134°54'1118.0
2016-May-23 07:34N 33°45' E 134°54'2020.2
2016-May-23 06:34N 34°05' E 134°56'1514.6
2016-May-23 05:33N 34°19' E 134°59'1514.9
2016-May-23 04:34N 34°29' E 135°13'1010.1
2016-May-23 03:33N 34°33' E 135°24'1 0.6
2016-May-23 02:31N 34°34' E 135°24'0 0.0
2016-May-22 11:31N 34°34' E 135°24'0 0.0
2016-May-22 10:07N 34°34' E 135°24'0 0.0
2016-May-22 09:31N 34°34' E 135°24'0 0.0
2016-May-22 07:31N 34°34' E 135°24'0 0.0
2016-May-22 06:25N 34°34' E 135°24'0 0.0
2016-May-22 05:31N 34°34' E 135°24'0 0.0
2016-May-22 04:31N 34°34' E 135°24'0 0.0
2016-May-22 03:25N 34°34' E 135°24'0 0.3
2016-May-22 02:33N 34°34' E 135°24'7 7.0
2016-May-22 01:34N 34°32' E 135°16'1312.5
2016-May-22 00:34N 34°23' E 135°05'1212.2
2016-May-21 23:33N 34°12' E 134°60'1010.1
2016-May-21 22:33N 34°02' E 134°58'  

Dump ship's entire track history